| Record Date MM/DD/YYYY | Record Time HH:MM:SS | Record Julian Date NNN day of the year | Air Temperature Max (Degrees Fahrenheit F) | Time Max Air Temperature HH:MM:SS This is the time of max air temp for the prior hour interval listed for record [Time]. | Air Temperature Min (Degrees Fahrenheit F) | Time Min Air Temperature HH:MM:SS This is the time of min air temp for the prior hour interval listed for record [Time]. | Air Temperature Observed (Degrees Fahrenheit F) This is an instantaneous reading at the record [Time]. | Relative Humidity Max (Percent) | Time Max Relative Humidity HH:MM:SS This is the time of max relative humidity for the prior hour interval listed for record [Time]. | Relative Humidity Min (Percent) | Time Min Relative Humidity HH:MM:SS This is the time of min relative humidity for the prior hour interval listed for record [Time]. | Relative Humidity Observed (Percent) This is an instantaneous reading at the record [Time]. | Precipitation (Inches n.nn) rain fall that occurred during the prior hour interval listed for record [Time]. | Wind Speed (Miles Per Hour) Resultant Speed that occurred during the prior hour interval listed for record [Time]. | Wind Direction (Degrees) Resultant Direction that occurred during the prior hour interval listed for record [Time]. | Solar Radiation (Langley's) that occurred during the prior hour interval listed for record [Time]. | Soil Temperature Average at 2 inch depth (Degrees Fahrenheit F) that occurred during the prior hour interval listed for record [Time]. | Soil Temperature Observed at 2 inch depth (Degrees Fahrenheit F) This is an instantaneous reading at the record [Time]. | Soil Temperature Average at 4 inch depth (Degrees Fahrenheit F) that occurred during the prior hour interval listed for record [Time]. | Soil Temperature Observed at 4 inch depth (Degrees Fahrenheit F) This is an instantaneous reading at the record [Time]. |
|---|---|---|---|---|---|---|---|---|---|---|---|---|---|---|---|---|---|---|---|---|
| 04/30/2026 | 0:00:00 | 120 | -148 | 23:00:00 | -148 | 23:00:00 | -148 | 23:00:00 | 23:00:00 | -100 | 0 | 9.8 | 33 | 0 | 66 | 66 | 68 | 68 | ||
| 04/30/2026 | 1:00:00 | 120 | -148 | 0:00:00 | -148 | 0:00:00 | -148 | 0:00:00 | 0:00:00 | -100 | 0 | 7.2 | 28 | 0 | 66 | 65 | 68 | 67 | ||
| 04/30/2026 | 2:00:00 | 120 | -148 | 1:00:00 | -148 | 1:00:00 | -148 | 1:00:00 | 1:00:00 | -100 | 0 | 5.8 | 25 | 0 | 65 | 64 | 67 | 67 | ||
| 04/30/2026 | 3:00:00 | 120 | -148 | 2:00:00 | -148 | 2:00:00 | -148 | 2:00:00 | 2:00:00 | -100 | 0 | 6.0 | 27 | 0 | 64 | 64 | 67 | 66 | ||
| 04/30/2026 | 4:00:00 | 120 | -148 | 3:00:00 | -148 | 3:00:00 | -148 | 3:00:00 | 3:00:00 | -100 | 0 | 9.0 | 29 | 0 | 63 | 63 | 66 | 66 | ||
| 04/30/2026 | 5:00:00 | 120 | -148 | 4:00:00 | -148 | 4:00:00 | -148 | 4:00:00 | 4:00:00 | -100 | 0 | 8.6 | 37 | 0 | 63 | 62 | 65 | 65 | ||
| 04/30/2026 | 6:00:00 | 120 | -148 | 5:00:00 | -148 | 5:00:00 | -148 | 5:00:00 | 5:00:00 | -100 | 0 | 9.1 | 38 | 3 | 62 | 62 | 65 | 65 | ||
| 04/30/2026 | 7:00:00 | 120 | -148 | 6:00:00 | -148 | 6:00:00 | -148 | 6:00:00 | 6:00:00 | -100 | 0 | 8.8 | 42 | 10 | 62 | 62 | 65 | 64 | ||
| 04/30/2026 | 8:00:00 | 120 | -148 | 7:00:00 | -148 | 7:00:00 | -148 | 7:00:00 | 7:00:00 | -100 | 0 | 9.2 | 44 | 33 | 63 | 64 | 64 | 64 | ||
| 04/30/2026 | 9:00:00 | 120 | -148 | 8:00:00 | -148 | 8:00:00 | -148 | 8:00:00 | 8:00:00 | -100 | 0 | 10.5 | 52 | 56 | 65 | 67 | 65 | 65 | ||
| 04/30/2026 | 10:00:00 | 120 | -148 | 9:00:00 | -148 | 9:00:00 | -148 | 9:00:00 | 9:00:00 | -100 | 0 | 9.4 | 47 | 65 | 69 | 70 | 66 | 67 | ||
| 04/30/2026 | 11:00:00 | 120 | -148 | 10:00:00 | -148 | 10:00:00 | -148 | 10:00:00 | 10:00:00 | -100 | 0 | 9.4 | 40 | 75 | 72 | 73 | 68 | 69 | ||
| 04/30/2026 | 12:00:00 | 120 | -148 | 11:00:00 | -148 | 11:00:00 | -148 | 11:00:00 | 11:00:00 | -100 | 0 | 8.2 | 23 | 75 | 74 | 75 | 70 | 70 | ||
| 04/30/2026 | 13:00:00 | 120 | -148 | 12:00:00 | -148 | 12:00:00 | -148 | 12:00:00 | 12:00:00 | -100 | 0 | 9.6 | 34 | 74 | 76 | 76 | 71 | 72 | ||
| 04/30/2026 | 14:00:00 | 120 | -148 | 13:00:00 | -148 | 13:00:00 | -148 | 13:00:00 | 13:00:00 | -100 | 0 | 10.4 | 26 | 57 | 76 | 76 | 72 | 73 | ||
| 04/30/2026 | 15:00:00 | 120 | -148 | 14:00:00 | -148 | 14:00:00 | -148 | 14:00:00 | 14:00:00 | -100 | 0 | 9.9 | 27 | 32 | 75 | 74 | 73 | 73 | ||
| 04/30/2026 | 16:00:00 | 120 | -148 | 15:00:00 | -148 | 15:00:00 | -148 | 15:00:00 | 15:00:00 | -100 | 0 | 9.4 | 26 | 22 | 73 | 72 | 72 | 72 | ||
| 04/30/2026 | 17:00:00 | 120 | -148 | 16:00:00 | -148 | 16:00:00 | -148 | 16:00:00 | 16:00:00 | -100 | 0 | 8.9 | 23 | 14 | 72 | 71 | 72 | 71 | ||
| 04/30/2026 | 18:00:00 | 120 | -148 | 17:00:00 | -148 | 17:00:00 | -148 | 17:00:00 | 17:00:00 | -100 | 0 | 7.3 | 22 | 6 | 70 | 69 | 71 | 71 | ||
| 04/30/2026 | 19:00:00 | 120 | -148 | 18:00:00 | -148 | 18:00:00 | -148 | 18:00:00 | 18:00:00 | -100 | 0 | 5.3 | 28 | 1 | 69 | 68 | 70 | 70 | ||
| 04/30/2026 | 20:00:00 | 120 | -148 | 19:00:00 | -148 | 19:00:00 | -148 | 19:00:00 | 19:00:00 | -100 | 0 | 3.8 | 31 | 0 | 67 | 67 | 69 | 69 | ||
| 04/30/2026 | 21:00:00 | 120 | -148 | 20:00:00 | -148 | 20:00:00 | -148 | 20:00:00 | 20:00:00 | -100 | 0 | 3.5 | 30 | 0 | 66 | 66 | 69 | 68 | ||
| 04/30/2026 | 22:00:00 | 120 | -148 | 21:00:00 | -148 | 21:00:00 | -148 | 21:00:00 | 21:00:00 | -100 | 0 | 2.0 | 31 | 0 | 65 | 65 | 68 | 67 | ||
| 04/30/2026 | 23:00:00 | 120 | -148 | 22:00:00 | -148 | 22:00:00 | -148 | 22:00:00 | 22:00:00 | -100 | 0 | 0.6 | 340 | 0 | 65 | 64 | 67 | 67 | ||
| 05/01/2026 | 0:00:00 | 121 | -148 | 23:00:00 | -148 | 23:00:00 | -148 | 23:00:00 | 23:00:00 | -100 | 0 | 0.8 | 344 | 0 | 64 | 64 | 67 | 66 | ||
| 05/01/2026 | 1:00:00 | 121 | -148 | 0:00:00 | -148 | 0:00:00 | -148 | 0:00:00 | 0:00:00 | -100 | 0 | 0.6 | 285 | 0 | 64 | 63 | 66 | 66 | ||
| 05/01/2026 | 2:00:00 | 121 | -148 | 1:00:00 | -148 | 1:00:00 | -148 | 1:00:00 | 1:00:00 | -100 | 0 | 1.2 | 338 | 0 | 63 | 63 | 66 | 65 | ||
| 05/01/2026 | 3:00:00 | 121 | -148 | 2:00:00 | -148 | 2:00:00 | -148 | 2:00:00 | 2:00:00 | -100 | 0 | 1.3 | 13 | 0 | 62 | 62 | 65 | 65 | ||
| 05/01/2026 | 4:00:00 | 121 | -148 | 3:00:00 | -148 | 3:00:00 | -148 | 3:00:00 | 3:00:00 | -100 | 0 | 1.7 | 14 | 0 | 62 | 62 | 65 | 64 | ||
| 05/01/2026 | 5:00:00 | 121 | -148 | 4:00:00 | -148 | 4:00:00 | -148 | 4:00:00 | 4:00:00 | -100 | 0 | 1.9 | 19 | 0 | 62 | 62 | 64 | 64 | ||
| 05/01/2026 | 6:00:00 | 121 | -148 | 5:00:00 | -148 | 5:00:00 | -148 | 5:00:00 | 5:00:00 | -100 | 0 | 2.8 | 21 | 2 | 61 | 61 | 64 | 64 | ||
| 05/01/2026 | 7:00:00 | 121 | -148 | 6:00:00 | -148 | 6:00:00 | -148 | 6:00:00 | 6:00:00 | -100 | 0 | 6.2 | 18 | 9 | 61 | 62 | 64 | 64 | ||
| 05/01/2026 | 8:00:00 | 121 | -148 | 7:00:00 | -148 | 7:00:00 | -148 | 7:00:00 | 7:00:00 | -100 | 0 | 7.7 | 23 | 22 | 62 | 62 | 64 | 64 | ||
| 05/01/2026 | 9:00:00 | 121 | -148 | 8:00:00 | -148 | 8:00:00 | -148 | 8:00:00 | 8:00:00 | -100 | 0 | 8.6 | 29 | 28 | 63 | 64 | 64 | 64 | ||
| 05/01/2026 | 10:00:00 | 121 | -148 | 9:00:00 | -148 | 9:00:00 | -148 | 9:00:00 | 9:00:00 | -100 | 0 | 8.1 | 18 | 33 | 64 | 65 | 64 | 65 | ||
| 05/01/2026 | 11:00:00 | 121 | -148 | 10:00:00 | -148 | 10:00:00 | -148 | 10:00:00 | 10:00:00 | -100 | 0 | 8.8 | 14 | 39 | 65 | 66 | 65 | 65 | ||
| 05/01/2026 | 12:00:00 | 121 | -148 | 11:00:00 | -148 | 11:00:00 | -148 | 11:00:00 | 11:00:00 | -100 | 0 | 8.3 | 15 | 42 | 66 | 67 | 65 | 66 | ||
| 05/01/2026 | 13:00:00 | 121 | -148 | 12:00:00 | -148 | 12:00:00 | -148 | 12:00:00 | 12:00:00 | -100 | 0 | 8.9 | 15 | 42 | 67 | 68 | 66 | 66 | ||
| 05/01/2026 | 14:00:00 | 121 | -148 | 13:00:00 | -148 | 13:00:00 | -148 | 13:00:00 | 13:00:00 | -100 | 0 | 9.9 | 20 | 37 | 68 | 68 | 67 | 67 | ||
| 05/01/2026 | 15:00:00 | 121 | -148 | 14:00:00 | -148 | 14:00:00 | -148 | 14:00:00 | 14:00:00 | -100 | 0 | 10.2 | 17 | 42 | 68 | 68 | 67 | 67 | ||
| 05/01/2026 | 16:00:00 | 121 | -148 | 15:00:00 | -148 | 15:00:00 | -148 | 15:00:00 | 15:00:00 | -100 | 0 | 9.8 | 28 | 34 | 68 | 68 | 67 | 67 | ||
| 05/01/2026 | 17:00:00 | 121 | -148 | 16:00:00 | -148 | 16:00:00 | -148 | 16:00:00 | 16:00:00 | -100 | 0 | 9.6 | 27 | 26 | 68 | 68 | 67 | 67 | ||
| 05/01/2026 | 18:00:00 | 121 | -148 | 17:00:00 | -148 | 17:00:00 | -148 | 17:00:00 | 17:00:00 | -100 | 0 | 7.4 | 19 | 11 | 67 | 67 | 67 | 67 | ||
| 05/01/2026 | 19:00:00 | 121 | -148 | 18:00:00 | -148 | 18:00:00 | -148 | 18:00:00 | 18:00:00 | -100 | 0 | 4.0 | 3 | 2 | 66 | 65 | 67 | 67 | ||
| 05/01/2026 | 20:00:00 | 121 | -148 | 19:00:00 | -148 | 19:00:00 | -148 | 19:00:00 | 19:00:00 | -100 | 0 | 2.5 | 355 | 0 | 65 | 64 | 66 | 66 | ||
| 05/01/2026 | 21:00:00 | 121 | -148 | 20:00:00 | -148 | 20:00:00 | -148 | 20:00:00 | 20:00:00 | -100 | 0 | 4.9 | 24 | 0 | 64 | 63 | 66 | 65 | ||
| 05/01/2026 | 22:00:00 | 121 | -148 | 21:00:00 | -148 | 21:00:00 | -148 | 21:00:00 | 21:00:00 | -100 | 0 | 2.7 | 24 | 0 | 63 | 63 | 65 | 65 | ||
| 05/01/2026 | 23:00:00 | 121 | -148 | 22:00:00 | -148 | 22:00:00 | -148 | 22:00:00 | 22:00:00 | -100 | 0 | 2.3 | 15 | 0 | 62 | 62 | 65 | 64 | ||
| 05/02/2026 | 0:00:00 | 122 | -148 | 23:00:00 | -148 | 23:00:00 | -148 | 23:00:00 | 23:00:00 | -100 | 0 | 1.4 | 9 | 0 | 62 | 62 | 64 | 64 | ||
| 05/02/2026 | 1:00:00 | 122 | -148 | 0:00:00 | -148 | 0:00:00 | -148 | 0:00:00 | 0:00:00 | -100 | 0 | 1.7 | 23 | 0 | 61 | 61 | 64 | 64 | ||
| 05/02/2026 | 2:00:00 | 122 | -148 | 1:00:00 | -148 | 1:00:00 | -148 | 1:00:00 | 1:00:00 | -100 | 0 | 1.6 | 23 | 0 | 61 | 60 | 63 | 63 | ||
| 05/02/2026 | 3:00:00 | 122 | -148 | 2:00:00 | -148 | 2:00:00 | -148 | 2:00:00 | 2:00:00 | -100 | 0 | 1.4 | 21 | 0 | 60 | 60 | 63 | 63 | ||
| 05/02/2026 | 4:00:00 | 122 | -148 | 3:00:00 | -148 | 3:00:00 | -148 | 3:00:00 | 3:00:00 | -100 | 0 | 0.7 | 302 | 0 | 59 | 59 | 62 | 62 | ||
| 05/02/2026 | 5:00:00 | 122 | -148 | 4:00:00 | -148 | 4:00:00 | -148 | 4:00:00 | 4:00:00 | -100 | 0 | 1.3 | 280 | 0 | 58 | 58 | 62 | 61 | ||
| 05/02/2026 | 6:00:00 | 122 | -148 | 5:00:00 | -148 | 5:00:00 | -148 | 5:00:00 | 5:00:00 | -100 | 0 | 0.7 | 285 | 2 | 58 | 58 | 61 | 61 | ||
| 05/02/2026 | 7:00:00 | 122 | -148 | 6:00:00 | -148 | 6:00:00 | -148 | 6:00:00 | 6:00:00 | -100 | 0 | 0.6 | 296 | 18 | 58 | 58 | 61 | 61 | ||
| 05/02/2026 | 8:00:00 | 122 | -148 | 7:00:00 | -148 | 7:00:00 | -148 | 7:00:00 | 7:00:00 | -100 | 0 | 1.0 | 150 | 39 | 60 | 61 | 61 | 61 | ||
| 05/02/2026 | 9:00:00 | 122 | -148 | 8:00:00 | -148 | 8:00:00 | -148 | 8:00:00 | 8:00:00 | -100 | 0 | 2.2 | 174 | 55 | 63 | 65 | 62 | 62 | ||
| 05/02/2026 | 10:00:00 | 122 | -148 | 9:00:00 | -148 | 9:00:00 | -148 | 9:00:00 | 9:00:00 | -100 | 0 | 6.0 | 259 | 69 | 67 | 69 | 63 | 64 | ||
| 05/02/2026 | 11:00:00 | 122 | -148 | 10:00:00 | -148 | 10:00:00 | -148 | 10:00:00 | 10:00:00 | -100 | 0 | 7.7 | 283 | 78 | 70 | 72 | 65 | 66 | ||
| 05/02/2026 | 12:00:00 | 122 | -148 | 11:00:00 | -148 | 11:00:00 | -148 | 11:00:00 | 11:00:00 | -100 | 0 | 7.9 | 295 | 85 | 73 | 74 | 67 | 68 | ||
| 05/02/2026 | 13:00:00 | 122 | -148 | 12:00:00 | -148 | 12:00:00 | -148 | 12:00:00 | 12:00:00 | -100 | 0 | 7.9 | 310 | 72 | 75 | 75 | 69 | 70 | ||
| 05/02/2026 | 14:00:00 | 122 | -148 | 13:00:00 | -148 | 13:00:00 | -148 | 13:00:00 | 13:00:00 | -100 | 0 | 6.2 | 317 | 42 | 75 | 74 | 70 | 71 | ||
| 05/02/2026 | 15:00:00 | 122 | -148 | 14:00:00 | -148 | 14:00:00 | -148 | 14:00:00 | 14:00:00 | -100 | 0 | 9.0 | 296 | 59 | 74 | 75 | 71 | 71 | ||
| 05/02/2026 | 16:00:00 | 122 | -148 | 15:00:00 | -148 | 15:00:00 | -148 | 15:00:00 | 15:00:00 | -100 | 0 | 8.2 | 301 | 35 | 74 | 74 | 71 | 71 | ||
| 05/02/2026 | 17:00:00 | 122 | -148 | 16:00:00 | -148 | 16:00:00 | -148 | 16:00:00 | 16:00:00 | -100 | 0 | 7.6 | 316 | 27 | 74 | 73 | 71 | 71 | ||
| 05/02/2026 | 18:00:00 | 122 | -148 | 17:00:00 | -148 | 17:00:00 | -148 | 17:00:00 | 17:00:00 | -100 | 0 | 4.5 | 342 | 15 | 72 | 72 | 71 | 71 | ||
| 05/02/2026 | 19:00:00 | 122 | -148 | 18:00:00 | -148 | 18:00:00 | -148 | 18:00:00 | 18:00:00 | -100 | 0 | 2.6 | 346 | 3 | 71 | 70 | 70 | 70 | ||
| 05/02/2026 | 20:00:00 | 122 | -148 | 19:00:00 | -148 | 19:00:00 | -148 | 19:00:00 | 19:00:00 | -100 | 0 | 1.4 | 353 | 0 | 69 | 68 | 70 | 69 | ||
| 05/02/2026 | 21:00:00 | 122 | -148 | 20:00:00 | -148 | 20:00:00 | -148 | 20:00:00 | 20:00:00 | -100 | 0 | 1.3 | 35 | 0 | 67 | 66 | 69 | 68 | ||
| 05/02/2026 | 22:00:00 | 122 | -148 | 21:00:00 | -148 | 21:00:00 | -148 | 21:00:00 | 21:00:00 | -100 | 0 | 2.1 | 34 | 0 | 65 | 65 | 68 | 67 | ||
| 05/02/2026 | 23:00:00 | 122 | -148 | 22:00:00 | -148 | 22:00:00 | -148 | 22:00:00 | 22:00:00 | -100 | 0 | 2.2 | 27 | 0 | 64 | 64 | 67 | 66 | ||
| 05/03/2026 | 0:00:00 | 123 | -148 | 23:00:00 | -148 | 23:00:00 | -148 | 23:00:00 | 23:00:00 | -100 | 0 | 3.6 | 47 | 0 | 63 | 63 | 66 | 65 | ||
| 05/03/2026 | 1:00:00 | 123 | -148 | 0:00:00 | -148 | 0:00:00 | -148 | 0:00:00 | 0:00:00 | -100 | 0 | 2.6 | 53 | 0 | 62 | 62 | 65 | 65 | ||
| 05/03/2026 | 2:00:00 | 123 | -148 | 1:00:00 | -148 | 1:00:00 | -148 | 1:00:00 | 1:00:00 | -100 | 0 | 1.6 | 40 | 0 | 62 | 61 | 64 | 64 | ||
| 05/03/2026 | 3:00:00 | 123 | -148 | 2:00:00 | -148 | 2:00:00 | -148 | 2:00:00 | 2:00:00 | -100 | 0 | 1.7 | 42 | 0 | 61 | 60 | 64 | 63 | ||
| 05/03/2026 | 4:00:00 | 123 | -148 | 3:00:00 | -148 | 3:00:00 | -148 | 3:00:00 | 3:00:00 | -100 | 0 | 0.8 | 9 | 0 | 60 | 60 | 63 | 63 | ||
| 05/03/2026 | 5:00:00 | 123 | -148 | 4:00:00 | -148 | 4:00:00 | -148 | 4:00:00 | 4:00:00 | -100 | 0 | 0.1 | 22 | 0 | 59 | 59 | 63 | 62 | ||
| 05/03/2026 | 6:00:00 | 123 | -148 | 5:00:00 | -148 | 5:00:00 | -148 | 5:00:00 | 5:00:00 | -100 | 0 | 0.0 | 0 | 2 | 59 | 58 | 62 | 62 | ||
| 05/03/2026 | 7:00:00 | 123 | -148 | 6:00:00 | -148 | 6:00:00 | -148 | 6:00:00 | 6:00:00 | -100 | 0 | 2.9 | 148 | 18 | 59 | 59 | 61 | 61 | ||
| 05/03/2026 | 8:00:00 | 123 | -148 | 7:00:00 | -148 | 7:00:00 | -148 | 7:00:00 | 7:00:00 | -100 | 0 | 7.2 | 157 | 39 | 60 | 61 | 61 | 62 | ||
| 05/03/2026 | 9:00:00 | 123 | -148 | 8:00:00 | -148 | 8:00:00 | -148 | 8:00:00 | 8:00:00 | -100 | 0 | 7.6 | 155 | 56 | 63 | 65 | 62 | 63 | ||
| 05/03/2026 | 10:00:00 | 123 | -148 | 9:00:00 | -148 | 9:00:00 | -148 | 9:00:00 | 9:00:00 | -100 | 0 | 8.9 | 171 | 70 | 67 | 69 | 64 | 65 | ||
| 05/03/2026 | 11:00:00 | 123 | -148 | 10:00:00 | -148 | 10:00:00 | -148 | 10:00:00 | 10:00:00 | -100 | 0 | 8.6 | 185 | 79 | 71 | 73 | 66 | 67 | ||
| 05/03/2026 | 12:00:00 | 123 | -148 | 11:00:00 | -148 | 11:00:00 | -148 | 11:00:00 | 11:00:00 | -100 | 0 | 8.5 | 205 | 85 | 75 | 77 | 68 | 69 | ||
| 05/03/2026 | 13:00:00 | 123 | -148 | 12:00:00 | -148 | 12:00:00 | -148 | 12:00:00 | 12:00:00 | -100 | 0 | 7.9 | 225 | 84 | 78 | 79 | 70 | 71 | ||
| 05/03/2026 | 14:00:00 | 123 | -148 | 13:00:00 | -148 | 13:00:00 | -148 | 13:00:00 | 13:00:00 | -100 | 0 | 7.8 | 246 | 78 | 80 | 80 | 72 | 73 | ||
| 05/03/2026 | 15:00:00 | 123 | -148 | 14:00:00 | -148 | 14:00:00 | -148 | 14:00:00 | 14:00:00 | -100 | 0 | 7.4 | 251 | 68 | 80 | 80 | 73 | 74 | ||
| 05/03/2026 | 16:00:00 | 123 | -148 | 15:00:00 | -148 | 15:00:00 | -148 | 15:00:00 | 15:00:00 | -100 | 0 | 7.1 | 244 | 53 | 80 | 80 | 74 | 74 | ||
| 05/03/2026 | 17:00:00 | 123 | -148 | 16:00:00 | -148 | 16:00:00 | -148 | 16:00:00 | 16:00:00 | -100 | 0 | 6.8 | 240 | 24 | 79 | 78 | 75 | 74 | ||
| 05/03/2026 | 18:00:00 | 123 | -148 | 17:00:00 | -148 | 17:00:00 | -148 | 17:00:00 | 17:00:00 | -100 | 0 | 6.1 | 226 | 14 | 77 | 76 | 74 | 74 | ||
| 05/03/2026 | 19:00:00 | 123 | -148 | 18:00:00 | -148 | 18:00:00 | -148 | 18:00:00 | 18:00:00 | -100 | 0 | 3.1 | 205 | 3 | 75 | 74 | 74 | 73 | ||
| 05/03/2026 | 20:00:00 | 123 | -148 | 19:00:00 | -148 | 19:00:00 | -148 | 19:00:00 | 19:00:00 | -100 | 0 | 2.9 | 179 | 0 | 73 | 72 | 73 | 72 | ||
| 05/03/2026 | 21:00:00 | 123 | -148 | 20:00:00 | -148 | 20:00:00 | -148 | 20:00:00 | 20:00:00 | -100 | 0 | 3.0 | 192 | 0 | 71 | 70 | 72 | 71 | ||
| 05/03/2026 | 22:00:00 | 123 | -148 | 21:00:00 | -148 | 21:00:00 | -148 | 21:00:00 | 21:00:00 | -100 | 0 | 3.5 | 196 | 0 | 69 | 69 | 71 | 70 | ||
| 05/03/2026 | 23:00:00 | 123 | -148 | 22:00:00 | -148 | 22:00:00 | -148 | 22:00:00 | 22:00:00 | -100 | 0 | 3.4 | 190 | 0 | 68 | 68 | 70 | 69 | ||
| 05/04/2026 | 0:00:00 | 124 | -148 | 23:00:00 | -148 | 23:00:00 | -148 | 23:00:00 | 23:00:00 | -100 | 0 | 3.9 | 192 | 0 | 67 | 67 | 69 | 69 | ||
| 05/04/2026 | 1:00:00 | 124 | -148 | 0:00:00 | -148 | 0:00:00 | -148 | 0:00:00 | 0:00:00 | -100 | 0 | 2.1 | 192 | 0 | 67 | 66 | 68 | 68 | ||
| 05/04/2026 | 2:00:00 | 124 | -148 | 1:00:00 | -148 | 1:00:00 | -148 | 1:00:00 | 1:00:00 | -100 | 0 | 6.9 | 196 | 0 | 66 | 66 | 68 | 67 | ||
| 05/04/2026 | 3:00:00 | 124 | -148 | 2:00:00 | -148 | 2:00:00 | -148 | 2:00:00 | 2:00:00 | -100 | 0 | 7.7 | 201 | 0 | 66 | 65 | 67 | 67 | ||
| 05/04/2026 | 4:00:00 | 124 | -148 | 3:00:00 | -148 | 3:00:00 | -148 | 3:00:00 | 3:00:00 | -100 | 0 | 6.3 | 198 | 0 | 65 | 65 | 67 | 67 | ||
| 05/04/2026 | 5:00:00 | 124 | -148 | 4:00:00 | -148 | 4:00:00 | -148 | 4:00:00 | 4:00:00 | -100 | 0 | 2.6 | 189 | 0 | 65 | 64 | 66 | 66 | ||
| 05/04/2026 | 6:00:00 | 124 | -148 | 5:00:00 | -148 | 5:00:00 | -148 | 5:00:00 | 5:00:00 | -100 | 0 | 1.4 | 204 | 2 | 64 | 64 | 66 | 66 | ||
| 05/04/2026 | 7:00:00 | 124 | -148 | 6:00:00 | -148 | 6:00:00 | -148 | 6:00:00 | 6:00:00 | -100 | 0 | 5.4 | 200 | 15 | 64 | 64 | 66 | 65 | ||
| 05/04/2026 | 8:00:00 | 124 | -148 | 7:00:00 | -148 | 7:00:00 | -148 | 7:00:00 | 7:00:00 | -100 | 0 | 8.1 | 206 | 37 | 65 | 66 | 65 | 66 | ||
| 05/04/2026 | 9:00:00 | 124 | -148 | 8:00:00 | -148 | 8:00:00 | -148 | 8:00:00 | 8:00:00 | -100 | 0 | 7.3 | 224 | 52 | 68 | 69 | 66 | 67 | ||
| 05/04/2026 | 10:00:00 | 124 | -148 | 9:00:00 | -148 | 9:00:00 | -148 | 9:00:00 | 9:00:00 | -100 | 0 | 11.4 | 234 | 69 | 71 | 73 | 67 | 68 | ||
| 05/04/2026 | 11:00:00 | 124 | -148 | 10:00:00 | -148 | 10:00:00 | -148 | 10:00:00 | 10:00:00 | -100 | 0 | 14.3 | 233 | 79 | 74 | 76 | 69 | 70 | ||
| 05/04/2026 | 12:00:00 | 124 | -148 | 11:00:00 | -148 | 11:00:00 | -148 | 11:00:00 | 11:00:00 | -100 | 0 | 15.4 | 235 | 84 | 77 | 78 | 71 | 72 | ||
| 05/04/2026 | 13:00:00 | 124 | -148 | 12:00:00 | -148 | 12:00:00 | -148 | 12:00:00 | 12:00:00 | -100 | 0 | 16.8 | 207 | 83 | 79 | 80 | 73 | 74 | ||
| 05/04/2026 | 14:00:00 | 124 | -148 | 13:00:00 | -148 | 13:00:00 | -148 | 13:00:00 | 13:00:00 | -100 | 0 | 17.3 | 210 | 77 | 80 | 81 | 74 | 75 | ||
| 05/04/2026 | 15:00:00 | 124 | -148 | 14:00:00 | -148 | 14:00:00 | -148 | 14:00:00 | 14:00:00 | -100 | 0 | 14.9 | 217 | 66 | 81 | 81 | 75 | 76 | ||
| 05/04/2026 | 16:00:00 | 124 | -148 | 15:00:00 | -148 | 15:00:00 | -148 | 15:00:00 | 15:00:00 | -100 | 0 | 16.3 | 214 | 52 | 81 | 80 | 76 | 76 | ||
| 05/04/2026 | 17:00:00 | 124 | -148 | 16:00:00 | -148 | 16:00:00 | -148 | 16:00:00 | 16:00:00 | -100 | 0 | 15.5 | 217 | 25 | 79 | 79 | 76 | 76 | ||
| 05/04/2026 | 18:00:00 | 124 | -148 | 17:00:00 | -148 | 17:00:00 | -148 | 17:00:00 | 17:00:00 | -100 | 0 | 13.4 | 215 | 11 | 78 | 77 | 76 | 75 | ||
| 05/04/2026 | 19:00:00 | 124 | -148 | 18:00:00 | -148 | 18:00:00 | -148 | 18:00:00 | 18:00:00 | -100 | 0 | 9.4 | 212 | 2 | 76 | 75 | 75 | 75 | ||
| 05/04/2026 | 20:00:00 | 124 | -148 | 19:00:00 | -148 | 19:00:00 | -148 | 19:00:00 | 19:00:00 | -100 | 0 | 6.5 | 192 | 0 | 74 | 73 | 74 | 74 | ||
| 05/04/2026 | 21:00:00 | 124 | -148 | 20:00:00 | -148 | 20:00:00 | -148 | 20:00:00 | 20:00:00 | -100 | 0 | 7.4 | 188 | 0 | 73 | 72 | 73 | 73 | ||
| 05/04/2026 | 22:00:00 | 124 | -148 | 21:00:00 | -148 | 21:00:00 | -148 | 21:00:00 | 21:00:00 | -100 | 0 | 7.0 | 187 | 0 | 72 | 71 | 72 | 72 | ||
| 05/04/2026 | 23:00:00 | 124 | -148 | 22:00:00 | -148 | 22:00:00 | -148 | 22:00:00 | 22:00:00 | -100 | 0 | 10.0 | 197 | 0 | 71 | 70 | 72 | 71 | ||
| 05/05/2026 | 0:00:00 | 125 | -148 | 23:00:00 | -148 | 23:00:00 | -148 | 23:00:00 | 23:00:00 | -100 | 0 | 9.8 | 200 | 0 | 70 | 70 | 71 | 71 | ||
| 05/05/2026 | 1:00:00 | 125 | -148 | 0:00:00 | -148 | 0:00:00 | -148 | 0:00:00 | 0:00:00 | -100 | 0 | 8.2 | 193 | 0 | 69 | 69 | 70 | 70 | ||
| 05/05/2026 | 2:00:00 | 125 | -148 | 1:00:00 | -148 | 1:00:00 | -148 | 1:00:00 | 1:00:00 | -100 | 0 | 9.8 | 190 | 0 | 69 | 69 | 70 | 70 | ||
| 05/05/2026 | 3:00:00 | 125 | -148 | 2:00:00 | -148 | 2:00:00 | -148 | 2:00:00 | 2:00:00 | -100 | 0 | 10.2 | 195 | 0 | 68 | 68 | 69 | 69 | ||
| 05/05/2026 | 4:00:00 | 125 | -148 | 3:00:00 | -148 | 3:00:00 | -148 | 3:00:00 | 3:00:00 | -100 | 0 | 8.9 | 188 | 0 | 68 | 68 | 69 | 69 | ||
| 05/05/2026 | 5:00:00 | 125 | -148 | 4:00:00 | -148 | 4:00:00 | -148 | 4:00:00 | 4:00:00 | -100 | 0 | 8.4 | 195 | 0 | 68 | 68 | 69 | 69 | ||
| 05/05/2026 | 6:00:00 | 125 | -148 | 5:00:00 | -148 | 5:00:00 | -148 | 5:00:00 | 5:00:00 | -100 | 0 | 9.2 | 194 | 0 | 68 | 68 | 68 | 68 | ||
| 05/05/2026 | 7:00:00 | 125 | -148 | 6:00:00 | -148 | 6:00:00 | -148 | 6:00:00 | 6:00:00 | -100 | 0 | 9.7 | 179 | 2 | 68 | 68 | 68 | 68 | ||
| 05/05/2026 | 8:00:00 | 125 | -148 | 7:00:00 | -148 | 7:00:00 | -148 | 7:00:00 | 7:00:00 | -100 | 0 | 9.5 | 169 | 3 | 68 | 68 | 68 | 68 | ||
| 05/05/2026 | 9:00:00 | 125 | -148 | 8:00:00 | -148 | 8:00:00 | -148 | 8:00:00 | 8:00:00 | -100 | 0 | 9.3 | 172 | 9 | 68 | 68 | 68 | 68 | ||
| 05/05/2026 | 10:00:00 | 125 | -148 | 9:00:00 | -148 | 9:00:00 | -148 | 9:00:00 | 9:00:00 | -100 | 0 | 12.0 | 186 | 6 | 68 | 68 | 68 | 68 | ||
| 05/05/2026 | 11:00:00 | 125 | -148 | 10:00:00 | -148 | 10:00:00 | -148 | 10:00:00 | 10:00:00 | -100 | 0 | 9.4 | 165 | 10 | 68 | 68 | 68 | 68 | ||
| 05/05/2026 | 12:00:00 | 125 | -148 | 11:00:00 | -148 | 11:00:00 | -148 | 11:00:00 | 11:00:00 | -100 | 0 | 9.3 | 163 | 11 | 68 | 69 | 68 | 68 | ||
| 05/05/2026 | 13:00:00 | 125 | -148 | 12:00:00 | -148 | 12:00:00 | -148 | 12:00:00 | 12:00:00 | -100 | 0.01 | 11.5 | 188 | 15 | 69 | 69 | 68 | 68 | ||
| 05/05/2026 | 14:00:00 | 125 | -148 | 13:00:00 | -148 | 13:00:00 | -148 | 13:00:00 | 13:00:00 | -100 | 0 | 11.8 | 188 | 11 | 69 | 69 | 69 | 69 | ||
| 05/05/2026 | 15:00:00 | 125 | -148 | 14:00:00 | -148 | 14:00:00 | -148 | 14:00:00 | 14:00:00 | -100 | 0 | 8.6 | 175 | 7 | 69 | 69 | 69 | 69 | ||
| 05/05/2026 | 16:00:00 | 125 | -148 | 15:00:00 | -148 | 15:00:00 | -148 | 15:00:00 | 15:00:00 | -100 | 0 | 12.0 | 190 | 8 | 69 | 70 | 69 | 69 | ||
| 05/05/2026 | 17:00:00 | 125 | -148 | 16:00:00 | -148 | 16:00:00 | -148 | 16:00:00 | 16:00:00 | -100 | 0 | 13.3 | 191 | 4 | 69 | 69 | 69 | 69 | ||
| 05/05/2026 | 18:00:00 | 125 | -148 | 17:00:00 | -148 | 17:00:00 | -148 | 17:00:00 | 17:00:00 | -100 | 0 | 1.2 | 194 | 4 | 69 | 69 | 69 | 69 | ||
| 05/05/2026 | 19:00:00 | 125 | -148 | 18:00:00 | -148 | 18:00:00 | -148 | 18:00:00 | 18:00:00 | -100 | 0 | 8.3 | 180 | 0 | 69 | 69 | 69 | 69 | ||
| 05/05/2026 | 20:00:00 | 125 | -148 | 19:00:00 | -148 | 19:00:00 | -148 | 19:00:00 | 19:00:00 | -100 | 0 | 6.7 | 170 | 0 | 69 | 69 | 69 | 69 | ||
| 05/05/2026 | 21:00:00 | 125 | -148 | 20:00:00 | -148 | 20:00:00 | -148 | 20:00:00 | 20:00:00 | -100 | 0 | 6.1 | 168 | 0 | 69 | 69 | 69 | 69 | ||
| 05/05/2026 | 22:00:00 | 125 | -148 | 21:00:00 | -148 | 21:00:00 | -148 | 21:00:00 | 21:00:00 | -100 | 0 | 7.4 | 176 | 0 | 69 | 69 | 69 | 69 | ||
| 05/05/2026 | 23:00:00 | 125 | -148 | 22:00:00 | -148 | 22:00:00 | -148 | 22:00:00 | 22:00:00 | -100 | 0 | 10.2 | 186 | 0 | 69 | 69 | 69 | 69 | ||
| 05/06/2026 | 0:00:00 | 126 | -148 | 23:00:00 | -148 | 23:00:00 | -148 | 23:00:00 | 23:00:00 | -100 | 0 | 11.7 | 200 | 0 | 69 | 69 | 68 | 68 | ||
| 05/06/2026 | 1:00:00 | 126 | -148 | 0:00:00 | -148 | 0:00:00 | -148 | 0:00:00 | 0:00:00 | -100 | 0 | 1.2 | 209 | 0 | 69 | 69 | 68 | 68 | ||
| 05/06/2026 | 2:00:00 | 126 | -148 | 1:00:00 | -148 | 1:00:00 | -148 | 1:00:00 | 1:00:00 | -100 | 0.14 | 10.8 | 9 | 0 | 68 | 68 | 68 | 68 | ||
| 05/06/2026 | 3:00:00 | 126 | -148 | 2:00:00 | -148 | 2:00:00 | -148 | 2:00:00 | 2:00:00 | -100 | 0.03 | 10.9 | 16 | 0 | 66 | 66 | 68 | 68 | ||
| 05/06/2026 | 4:00:00 | 126 | -148 | 3:00:00 | -148 | 3:00:00 | -148 | 3:00:00 | 3:00:00 | -100 | 0.7 | 11.6 | 19 | 0 | 62 | 60 | 65 | 64 | ||
| 05/06/2026 | 5:00:00 | 126 | -148 | 4:00:00 | -148 | 4:00:00 | -148 | 4:00:00 | 4:00:00 | -100 | 0.14 | 8.0 | 12 | 0 | 59 | 59 | 63 | 63 | ||
| 05/06/2026 | 6:00:00 | 126 | -148 | 5:00:00 | -148 | 5:00:00 | -148 | 5:00:00 | 5:00:00 | -100 | 0 | 8.2 | 13 | 1 | 60 | 60 | 63 | 63 | ||
| 05/06/2026 | 7:00:00 | 126 | -148 | 6:00:00 | -148 | 6:00:00 | -148 | 6:00:00 | 6:00:00 | -100 | 0 | 6.9 | 13 | 3 | 60 | 60 | 63 | 62 | ||
| 05/06/2026 | 8:00:00 | 126 | -148 | 7:00:00 | -148 | 7:00:00 | -148 | 7:00:00 | 7:00:00 | -100 | 0 | 6.8 | 6 | 6 | 60 | 60 | 62 | 62 | ||
| 05/06/2026 | 9:00:00 | 126 | -148 | 8:00:00 | -148 | 8:00:00 | -148 | 8:00:00 | 8:00:00 | -100 | 0 | 8.7 | 15 | 7 | 61 | 61 | 62 | 62 | ||
| 05/06/2026 | 10:00:00 | 126 | -148 | 9:00:00 | -148 | 9:00:00 | -148 | 9:00:00 | 9:00:00 | -100 | 0.05 | 8.1 | 10 | 11 | 61 | 61 | 62 | 62 | ||
| 05/06/2026 | 11:00:00 | 126 | -148 | 10:00:00 | -148 | 10:00:00 | -148 | 10:00:00 | 10:00:00 | -100 | 0.04 | 8.1 | 11 | 15 | 61 | 61 | 62 | 62 | ||
| 05/06/2026 | 12:00:00 | 126 | -148 | 11:00:00 | -148 | 11:00:00 | -148 | 11:00:00 | 11:00:00 | -100 | 0.07 | 8.6 | 19 | 18 | 61 | 61 | 62 | 62 | ||
| 05/06/2026 | 13:00:00 | 126 | -148 | 12:00:00 | -148 | 12:00:00 | -148 | 12:00:00 | 12:00:00 | -100 | 0 | 8.0 | 17 | 17 | 61 | 62 | 62 | 63 | ||
| 05/06/2026 | 14:00:00 | 126 | -148 | 13:00:00 | -148 | 13:00:00 | -148 | 13:00:00 | 13:00:00 | -100 | 0.13 | 5.0 | 1 | 5 | 62 | 61 | 63 | 63 | ||
| 05/06/2026 | 15:00:00 | 126 | -148 | 14:00:00 | -148 | 14:00:00 | -148 | 14:00:00 | 14:00:00 | -100 | 0.06 | 7.4 | 19 | 16 | 61 | 61 | 62 | 62 | ||
| 05/06/2026 | 16:00:00 | 126 | -148 | 15:00:00 | -148 | 15:00:00 | -148 | 15:00:00 | 15:00:00 | -100 | 0.01 | 12.1 | 29 | 19 | 62 | 62 | 62 | 63 | ||
| 05/06/2026 | 17:00:00 | 126 | -148 | 16:00:00 | -148 | 16:00:00 | -148 | 16:00:00 | 16:00:00 | -100 | 0 | 7.9 | 17 | 7 | 62 | 62 | 63 | 63 | ||
| 05/06/2026 | 18:00:00 | 126 | -148 | 17:00:00 | -148 | 17:00:00 | -148 | 17:00:00 | 17:00:00 | -100 | 0 | 8.5 | 17 | 4 | 61 | 61 | 63 | 63 | ||
| 05/06/2026 | 19:00:00 | 126 | -148 | 18:00:00 | -148 | 18:00:00 | -148 | 18:00:00 | 18:00:00 | -100 | 0 | 10.2 | 28 | 0 | 61 | 61 | 62 | 62 | ||
| 05/06/2026 | 20:00:00 | 126 | -148 | 19:00:00 | -148 | 19:00:00 | -148 | 19:00:00 | 19:00:00 | -100 | 0 | 8.4 | 32 | 0 | 61 | 60 | 62 | 62 | ||
| 05/06/2026 | 21:00:00 | 126 | -148 | 20:00:00 | -148 | 20:00:00 | -148 | 20:00:00 | 20:00:00 | -100 | 0 | 6.6 | 38 | 0 | 60 | 60 | 62 | 62 | ||
| 05/06/2026 | 22:00:00 | 126 | -148 | 21:00:00 | -148 | 21:00:00 | -148 | 21:00:00 | 21:00:00 | -100 | 0 | 6.8 | 42 | 0 | 60 | 60 | 62 | 62 | ||
| 05/06/2026 | 23:00:00 | 126 | -148 | 22:00:00 | -148 | 22:00:00 | -148 | 22:00:00 | 22:00:00 | -100 | 0 | 6.3 | 34 | 0 | 60 | 60 | 61 | 61 | ||
| 05/07/2026 | 0:00:00 | 127 | -148 | 23:00:00 | -148 | 23:00:00 | -148 | 23:00:00 | 23:00:00 | -100 | 0 | 2.8 | 3 | 0 | 60 | 59 | 61 | 61 | ||
| 05/07/2026 | 1:00:00 | 127 | -148 | 0:00:00 | -148 | 0:00:00 | -148 | 0:00:00 | 0:00:00 | -100 | 0 | 3.1 | 10 | 0 | 59 | 59 | 61 | 61 | ||
| 05/07/2026 | 2:00:00 | 127 | -148 | 1:00:00 | -148 | 1:00:00 | -148 | 1:00:00 | 1:00:00 | -100 | 0 | 3.4 | 5 | 0 | 59 | 59 | 61 | 61 | ||
| Average | -148 | -148 | -148 | 0 | 0 | -100 | 0.01 | 6.82 | 17.76 | 66.96 | 66.96 | 67.07 | 67.06 | |||||||
| Total | 1.38 |